sensor_id;sensor_type;location;lat;lon;timestamp;temperature;humidity
15676;DHT22;7938;47.666;9.434;2023-02-14T05:01:49;0.10;99.90
15676;DHT22;7938;47.666;9.434;2023-02-14T05:04:16;0.10;99.90
15676;DHT22;7938;47.666;9.434;2023-02-14T05:06:43;0.10;99.90
15676;DHT22;7938;47.666;9.434;2023-02-14T05:09:10;0.00;99.90
15676;DHT22;7938;47.666;9.434;2023-02-14T05:11:37;0.00;99.90
15676;DHT22;7938;47.666;9.434;2023-02-14T05:14:04;0.00;99.90
15676;DHT22;7938;47.666;9.434;2023-02-14T05:16:31;0.00;99.90
15676;DHT22;7938;47.666;9.434;2023-02-14T05:18:59;0.00;99.90
15676;DHT22;7938;47.666;9.434;2023-02-14T05:21:26;-0.10;99.90
15676;DHT22;7938;47.666;9.434;2023-02-14T05:23:53;-0.10;99.90
15676;DHT22;7938;47.666;9.434;2023-02-14T05:26:20;-0.10;99.90
15676;DHT22;7938;47.666;9.434;2023-02-14T05:28:47;-0.10;99.90
15676;DHT22;7938;47.666;9.434;2023-02-14T05:31:13;-0.10;99.90
15676;DHT22;7938;47.666;9.434;2023-02-14T05:33:40;-0.10;99.90
15676;DHT22;7938;47.666;9.434;2023-02-14T05:36:09;-0.10;99.90
15676;DHT22;7938;47.666;9.434;2023-02-14T05:38:37;-0.10;99.90
15676;DHT22;7938;47.666;9.434;2023-02-14T05:41:04;-0.10;99.90
15676;DHT22;7938;47.666;9.434;2023-02-14T05:43:31;-0.10;99.90
15676;DHT22;7938;47.666;9.434;2023-02-14T05:45:58;-0.10;99.90
15676;DHT22;7938;47.666;9.434;2023-02-14T05:48:25;0.00;99.90
15676;DHT22;7938;47.666;9.434;2023-02-14T05:50:54;-0.10;99.90
15676;DHT22;7938;47.666;9.434;2023-02-14T05:53:22;-0.10;99.90
15676;DHT22;7938;47.666;9.434;2023-02-14T05:55:49;-0.10;99.90
15676;DHT22;7938;47.666;9.434;2023-02-14T05:58:16;-0.10;99.90
15676;DHT22;7938;47.666;9.434;2023-02-14T06:00:43;-0.10;99.90
15676;DHT22;7938;47.666;9.434;2023-02-14T06:03:10;-0.10;99.90
15676;DHT22;7938;47.666;9.434;2023-02-14T06:05:37;-0.20;99.90
15676;DHT22;7938;47.666;9.434;2023-02-14T06:08:03;-0.10;99.90
15676;DHT22;7938;47.666;9.434;2023-02-14T06:10:32;-0.10;99.90
15676;DHT22;7938;47.666;9.434;2023-02-14T06:12:59;-0.10;99.90
15676;DHT22;7938;47.666;9.434;2023-02-14T06:15:29;-0.10;99.90
15676;DHT22;7938;47.666;9.434;2023-02-14T06:17:56;-0.10;99.90
15676;DHT22;7938;47.666;9.434;2023-02-14T06:20:23;-0.20;99.90
15676;DHT22;7938;47.666;9.434;2023-02-14T06:22:51;-0.20;99.90
15676;DHT22;7938;47.666;9.434;2023-02-14T06:25:18;0.60;99.90
15676;DHT22;7938;47.666;9.434;2023-02-14T06:27:47;-0.30;99.90
15676;DHT22;7938;47.666;9.434;2023-02-14T06:30:15;-0.30;99.90
15676;DHT22;7938;47.666;9.434;2023-02-14T06:32:42;-0.30;99.90
15676;DHT22;7938;47.666;9.434;2023-02-14T06:35:09;-0.30;99.90
15676;DHT22;7938;47.666;9.434;2023-02-14T06:37:36;-0.30;99.90
15676;DHT22;7938;47.666;9.434;2023-02-14T06:40:06;-0.30;99.90
15676;DHT22;7938;47.666;9.434;2023-02-14T06:42:33;-0.30;99.90
15676;DHT22;7938;47.666;9.434;2023-02-14T06:45:02;-0.20;99.90
15676;DHT22;7938;47.666;9.434;2023-02-14T06:47:29;-0.30;99.90
15676;DHT22;7938;47.666;9.434;2023-02-14T06:49:56;-0.30;99.90
15676;DHT22;7938;47.666;9.434;2023-02-14T06:52:24;-0.30;99.90
15676;DHT22;7938;47.666;9.434;2023-02-14T06:54:51;-0.30;99.90
15676;DHT22;7938;47.666;9.434;2023-02-14T06:57:18;-0.40;99.90
15676;DHT22;7938;47.666;9.434;2023-02-14T06:59:45;-0.30;99.90
15676;DHT22;7938;47.666;9.434;2023-02-14T07:02:13;-0.30;99.90
15676;DHT22;7938;47.666;9.434;2023-02-14T07:04:40;-0.30;99.90
15676;DHT22;7938;47.666;9.434;2023-02-14T07:07:07;-0.30;99.90
15676;DHT22;7938;47.666;9.434;2023-02-14T07:09:33;-0.30;99.90
15676;DHT22;7938;47.666;9.434;2023-02-14T07:12:00;-0.30;99.90
15676;DHT22;7938;47.666;9.434;2023-02-14T07:14:27;-0.30;99.90
15676;DHT22;7938;47.666;9.434;2023-02-14T07:22:00;-0.20;99.90
15676;DHT22;7938;47.666;9.434;2023-02-14T07:26:54;-0.20;99.90
15676;DHT22;7938;47.666;9.434;2023-02-14T07:29:21;-0.20;99.90
15676;DHT22;7938;47.666;9.434;2023-02-14T07:34:21;-0.20;99.90
15676;DHT22;7938;47.666;9.434;2023-02-14T07:39:19;-0.10;99.90
15676;DHT22;7938;47.666;9.434;2023-02-14T07:41:54;-0.20;99.90
15676;DHT22;7938;47.666;9.434;2023-02-14T07:49:19;-0.10;99.90
15676;DHT22;7938;47.666;9.434;2023-02-14T07:51:46;-0.10;99.90
15676;DHT22;7938;47.666;9.434;2023-02-14T07:54:15;0.00;99.90
15676;DHT22;7938;47.666;9.434;2023-02-14T07:56:42;0.00;99.90
15676;DHT22;7938;47.666;9.434;2023-02-14T07:59:08;0.00;99.90
15676;DHT22;7938;47.666;9.434;2023-02-14T08:01:35;0.10;99.90
15676;DHT22;7938;47.666;9.434;2023-02-14T08:04:02;0.10;99.90
15676;DHT22;7938;47.666;9.434;2023-02-14T08:06:29;0.10;99.90
15676;DHT22;7938;47.666;9.434;2023-02-14T08:08:56;0.20;99.90
15676;DHT22;7938;47.666;9.434;2023-02-14T08:11:24;0.40;99.90
15676;DHT22;7938;47.666;9.434;2023-02-14T08:19:10;0.50;99.90
15676;DHT22;7938;47.666;9.434;2023-02-14T08:21:37;0.60;99.90
15676;DHT22;7938;47.666;9.434;2023-02-14T08:24:04;0.70;99.90
15676;DHT22;7938;47.666;9.434;2023-02-14T08:26:36;0.60;99.90
15676;DHT22;7938;47.666;9.434;2023-02-14T08:29:03;0.60;99.90
15676;DHT22;7938;47.666;9.434;2023-02-14T08:31:31;0.70;99.90
15676;DHT22;7938;47.666;9.434;2023-02-14T08:33:58;0.80;99.90
15676;DHT22;7938;47.666;9.434;2023-02-14T08:36:24;0.80;99.90
15676;DHT22;7938;47.666;9.434;2023-02-14T08:38:51;0.60;99.90
15676;DHT22;7938;47.666;9.434;2023-02-14T08:41:19;0.60;99.90
15676;DHT22;7938;47.666;9.434;2023-02-14T08:43:48;0.60;99.90
15676;DHT22;7938;47.666;9.434;2023-02-14T08:46:15;0.60;99.90
15676;DHT22;7938;47.666;9.434;2023-02-14T08:48:42;0.60;99.90
15676;DHT22;7938;47.666;9.434;2023-02-14T08:51:11;0.80;99.90
15676;DHT22;7938;47.666;9.434;2023-02-14T08:53:39;0.90;99.90
15676;DHT22;7938;47.666;9.434;2023-02-14T08:56:07;0.90;99.90
15676;DHT22;7938;47.666;9.434;2023-02-14T08:58:34;0.90;99.90
15676;DHT22;7938;47.666;9.434;2023-02-14T09:01:08;0.80;99.90
15676;DHT22;7938;47.666;9.434;2023-02-14T09:03:35;0.90;99.90
15676;DHT22;7938;47.666;9.434;2023-02-14T09:06:03;0.90;99.90
15676;DHT22;7938;47.666;9.434;2023-02-14T09:08:30;0.90;99.90
15676;DHT22;7938;47.666;9.434;2023-02-14T09:11:05;1.00;99.90
15676;DHT22;7938;47.666;9.434;2023-02-14T09:13:32;1.00;99.90
15676;DHT22;7938;47.666;9.434;2023-02-14T09:16:02;1.00;99.90
15676;DHT22;7938;47.666;9.434;2023-02-14T09:18:30;1.00;99.90
15676;DHT22;7938;47.666;9.434;2023-02-14T09:20:57;0.90;99.90
15676;DHT22;7938;47.666;9.434;2023-02-14T09:23:24;1.00;99.90
15676;DHT22;7938;47.666;9.434;2023-02-14T09:25:58;1.00;99.90
15676;DHT22;7938;47.666;9.434;2023-02-14T09:28:25;0.90;99.90
15676;DHT22;7938;47.666;9.434;2023-02-14T09:30:54;1.00;99.90
15676;DHT22;7938;47.666;9.434;2023-02-14T09:33:20;1.00;99.90
15676;DHT22;7938;47.666;9.434;2023-02-14T09:35:49;1.20;99.90
15676;DHT22;7938;47.666;9.434;2023-02-14T09:38:33;1.40;99.90
15676;DHT22;7938;47.666;9.434;2023-02-14T09:41:05;1.50;99.90
15676;DHT22;7938;47.666;9.434;2023-02-14T09:43:37;1.50;99.90
15676;DHT22;7938;47.666;9.434;2023-02-14T09:46:10;1.50;99.90
15676;DHT22;7938;47.666;9.434;2023-02-14T09:48:42;1.60;99.90
15676;DHT22;7938;47.666;9.434;2023-02-14T09:51:13;1.70;99.90
15676;DHT22;7938;47.666;9.434;2023-02-14T09:53:44;1.80;99.90
15676;DHT22;7938;47.666;9.434;2023-02-14T09:56:18;1.70;99.90
15676;DHT22;7938;47.666;9.434;2023-02-14T09:58:51;1.80;99.90
15676;DHT22;7938;47.666;9.434;2023-02-14T10:01:25;1.70;99.90
15676;DHT22;7938;47.666;9.434;2023-02-14T10:04:19;1.80;99.90
15676;DHT22;7938;47.666;9.434;2023-02-14T10:06:56;1.90;99.90
15676;DHT22;7938;47.666;9.434;2023-02-14T10:09:35;2.00;99.90
15676;DHT22;7938;47.666;9.434;2023-02-14T10:12:04;2.20;99.90
15676;DHT22;7938;47.666;9.434;2023-02-14T10:14:35;2.20;99.90
15676;DHT22;7938;47.666;9.434;2023-02-14T10:17:08;2.10;99.90
15676;DHT22;7938;47.666;9.434;2023-02-14T10:19:40;2.00;99.90
15676;DHT22;7938;47.666;9.434;2023-02-14T10:22:13;2.00;99.90
15676;DHT22;7938;47.666;9.434;2023-02-14T10:24:44;1.90;99.90
15676;DHT22;7938;47.666;9.434;2023-02-14T10:27:22;1.90;99.90
15676;DHT22;7938;47.666;9.434;2023-02-14T10:29:54;2.00;99.90
15676;DHT22;7938;47.666;9.434;2023-02-14T10:32:28;2.10;99.90
15676;DHT22;7938;47.666;9.434;2023-02-14T10:34:59;2.10;99.90
15676;DHT22;7938;47.666;9.434;2023-02-14T10:37:40;2.10;99.90
15676;DHT22;7938;47.666;9.434;2023-02-14T10:40:40;2.20;99.90
15676;DHT22;7938;47.666;9.434;2023-02-14T10:43:20;2.30;99.90
15676;DHT22;7938;47.666;9.434;2023-02-14T10:45:55;2.40;99.90
15676;DHT22;7938;47.666;9.434;2023-02-14T10:48:35;2.60;99.90
15676;DHT22;7938;47.666;9.434;2023-02-14T10:51:12;2.10;99.90
15676;DHT22;7938;47.666;9.434;2023-02-14T10:53:49;2.00;99.90
15676;DHT22;7938;47.666;9.434;2023-02-14T10:56:24;2.20;99.90
15676;DHT22;7938;47.666;9.434;2023-02-14T10:58:53;2.10;99.90
15676;DHT22;7938;47.666;9.434;2023-02-14T11:01:22;2.20;99.90
15676;DHT22;7938;47.666;9.434;2023-02-14T11:03:52;2.10;99.90
15676;DHT22;7938;47.666;9.434;2023-02-14T11:06:20;2.00;99.90
15676;DHT22;7938;47.666;9.434;2023-02-14T11:08:48;2.10;99.90
15676;DHT22;7938;47.666;9.434;2023-02-14T11:11:18;2.20;99.90
15676;DHT22;7938;47.666;9.434;2023-02-14T11:13:48;2.10;99.90
15676;DHT22;7938;47.666;9.434;2023-02-14T11:16:29;2.10;99.90
15676;DHT22;7938;47.666;9.434;2023-02-14T11:19:08;2.00;99.90
15676;DHT22;7938;47.666;9.434;2023-02-14T11:21:36;2.10;99.90
15676;DHT22;7938;47.666;9.434;2023-02-14T11:24:16;2.20;99.90
15676;DHT22;7938;47.666;9.434;2023-02-14T11:26:45;2.30;99.90
15676;DHT22;7938;47.666;9.434;2023-02-14T11:29:16;2.40;99.90
15676;DHT22;7938;47.666;9.434;2023-02-14T11:31:46;2.60;99.90
15676;DHT22;7938;47.666;9.434;2023-02-14T11:34:29;2.70;99.90
15676;DHT22;7938;47.666;9.434;2023-02-14T11:36:57;2.70;99.90
15676;DHT22;7938;47.666;9.434;2023-02-14T11:39:28;2.70;99.90
15676;DHT22;7938;47.666;9.434;2023-02-14T11:41:58;2.80;99.90
15676;DHT22;7938;47.666;9.434;2023-02-14T11:44:26;3.00;99.90
15676;DHT22;7938;47.666;9.434;2023-02-14T11:46:55;3.00;99.90
15676;DHT22;7938;47.666;9.434;2023-02-14T11:49:30;3.00;99.90
15676;DHT22;7938;47.666;9.434;2023-02-14T11:51:59;3.20;99.90
15676;DHT22;7938;47.666;9.434;2023-02-14T11:54:32;3.20;99.90
15676;DHT22;7938;47.666;9.434;2023-02-14T11:57:02;3.20;99.90
15676;DHT22;7938;47.666;9.434;2023-02-14T11:59:33;3.30;99.90
15676;DHT22;7938;47.666;9.434;2023-02-14T12:02:09;3.20;99.90
15676;DHT22;7938;47.666;9.434;2023-02-14T12:04:40;3.10;99.90
15676;DHT22;7938;47.666;9.434;2023-02-14T12:07:13;3.10;99.90
15676;DHT22;7938;47.666;9.434;2023-02-14T12:09:43;3.30;99.90
15676;DHT22;7938;47.666;9.434;2023-02-14T12:12:21;3.40;99.90
15676;DHT22;7938;47.666;9.434;2023-02-14T12:14:48;3.20;99.90
15676;DHT22;7938;47.666;9.434;2023-02-14T12:17:23;3.30;99.90
15676;DHT22;7938;47.666;9.434;2023-02-14T12:19:57;3.30;99.90
15676;DHT22;7938;47.666;9.434;2023-02-14T12:22:30;3.30;99.90
15676;DHT22;7938;47.666;9.434;2023-02-14T12:25:08;3.40;99.90
15676;DHT22;7938;47.666;9.434;2023-02-14T12:27:44;3.40;99.90
15676;DHT22;7938;47.666;9.434;2023-02-14T12:30:15;3.50;99.90
15676;DHT22;7938;47.666;9.434;2023-02-14T12:32:46;3.40;99.90
15676;DHT22;7938;47.666;9.434;2023-02-14T12:35:15;3.20;99.90
15676;DHT22;7938;47.666;9.434;2023-02-14T12:37:56;3.70;99.90
15676;DHT22;7938;47.666;9.434;2023-02-14T12:40:30;3.90;99.90
15676;DHT22;7938;47.666;9.434;2023-02-14T12:43:17;3.90;99.90
15676;DHT22;7938;47.666;9.434;2023-02-14T12:46:02;3.80;99.90
15676;DHT22;7938;47.666;9.434;2023-02-14T12:48:41;3.80;99.90
15676;DHT22;7938;47.666;9.434;2023-02-14T12:51:18;3.50;99.90
15676;DHT22;7938;47.666;9.434;2023-02-14T12:54:05;3.40;99.90
15676;DHT22;7938;47.666;9.434;2023-02-14T12:56:45;3.40;99.90
15676;DHT22;7938;47.666;9.434;2023-02-14T12:59:25;3.20;99.90
15676;DHT22;7938;47.666;9.434;2023-02-14T13:02:17;3.30;99.90
15676;DHT22;7938;47.666;9.434;2023-02-14T13:04:55;3.40;99.90
15676;DHT22;7938;47.666;9.434;2023-02-14T13:07:35;3.40;99.90
15676;DHT22;7938;47.666;9.434;2023-02-14T13:10:13;3.40;99.90
15676;DHT22;7938;47.666;9.434;2023-02-14T13:12:48;3.40;99.90
15676;DHT22;7938;47.666;9.434;2023-02-14T13:15:23;3.50;99.90
15676;DHT22;7938;47.666;9.434;2023-02-14T13:17:57;3.40;99.90
15676;DHT22;7938;47.666;9.434;2023-02-14T13:20:38;3.40;99.90
15676;DHT22;7938;47.666;9.434;2023-02-14T13:23:12;3.40;99.90
15676;DHT22;7938;47.666;9.434;2023-02-14T13:25:43;3.30;99.90
15676;DHT22;7938;47.666;9.434;2023-02-14T13:28:16;3.30;99.90
15676;DHT22;7938;47.666;9.434;2023-02-14T13:30:44;3.30;99.90
15676;DHT22;7938;47.666;9.434;2023-02-14T13:33:23;3.20;99.90
15676;DHT22;7938;47.666;9.434;2023-02-14T13:35:54;3.30;99.90
15676;DHT22;7938;47.666;9.434;2023-02-14T13:38:22;3.50;99.90
15676;DHT22;7938;47.666;9.434;2023-02-14T13:40:50;3.30;99.90
15676;DHT22;7938;47.666;9.434;2023-02-14T13:43:47;3.30;99.90
15676;DHT22;7938;47.666;9.434;2023-02-14T13:46:17;3.20;99.90
15676;DHT22;7938;47.666;9.434;2023-02-14T13:48:58;3.20;99.90
15676;DHT22;7938;47.666;9.434;2023-02-14T13:51:51;3.20;99.90
15676;DHT22;7938;47.666;9.434;2023-02-14T13:54:29;3.40;99.90
15676;DHT22;7938;47.666;9.434;2023-02-14T13:56:57;3.40;99.90
15676;DHT22;7938;47.666;9.434;2023-02-14T13:59:29;3.50;99.90
15676;DHT22;7938;47.666;9.434;2023-02-14T14:02:30;3.60;99.90
15676;DHT22;7938;47.666;9.434;2023-02-14T14:04:57;3.70;99.90
15676;DHT22;7938;47.666;9.434;2023-02-14T14:07:25;3.70;99.90
15676;DHT22;7938;47.666;9.434;2023-02-14T14:10:02;3.60;99.90
15676;DHT22;7938;47.666;9.434;2023-02-14T14:12:43;3.60;99.90
15676;DHT22;7938;47.666;9.434;2023-02-14T14:15:18;3.70;99.90
15676;DHT22;7938;47.666;9.434;2023-02-14T14:17:48;3.90;99.90
15676;DHT22;7938;47.666;9.434;2023-02-14T14:20:40;3.60;99.90
15676;DHT22;7938;47.666;9.434;2023-02-14T14:23:30;3.60;99.90
15676;DHT22;7938;47.666;9.434;2023-02-14T14:25:57;3.50;99.90
15676;DHT22;7938;47.666;9.434;2023-02-14T14:28:27;3.60;99.90
15676;DHT22;7938;47.666;9.434;2023-02-14T14:30:57;3.60;99.90
15676;DHT22;7938;47.666;9.434;2023-02-14T14:33:27;3.60;99.90
15676;DHT22;7938;47.666;9.434;2023-02-14T14:35:56;3.50;99.90
15676;DHT22;7938;47.666;9.434;2023-02-14T14:38:24;3.60;99.90
15676;DHT22;7938;47.666;9.434;2023-02-14T14:40:52;3.50;99.90
15676;DHT22;7938;47.666;9.434;2023-02-14T14:43:25;3.50;99.90
15676;DHT22;7938;47.666;9.434;2023-02-14T14:45:53;3.60;99.90
15676;DHT22;7938;47.666;9.434;2023-02-14T14:48:28;3.60;99.90
15676;DHT22;7938;47.666;9.434;2023-02-14T14:50:56;3.50;99.90
15676;DHT22;7938;47.666;9.434;2023-02-14T14:53:27;3.40;99.90
15676;DHT22;7938;47.666;9.434;2023-02-14T14:55:55;3.50;99.90
15676;DHT22;7938;47.666;9.434;2023-02-14T14:58:35;3.40;99.90
15676;DHT22;7938;47.666;9.434;2023-02-14T15:01:03;3.30;99.90
15676;DHT22;7938;47.666;9.434;2023-02-14T15:03:31;3.30;99.90
15676;DHT22;7938;47.666;9.434;2023-02-14T15:06:06;3.30;99.90
15676;DHT22;7938;47.666;9.434;2023-02-14T15:08:34;3.20;99.90
15676;DHT22;7938;47.666;9.434;2023-02-14T15:11:05;3.10;99.90
15676;DHT22;7938;47.666;9.434;2023-02-14T15:13:37;3.20;99.90
15676;DHT22;7938;47.666;9.434;2023-02-14T15:16:24;2.90;99.90
15676;DHT22;7938;47.666;9.434;2023-02-14T15:18:57;2.70;99.90
15676;DHT22;7938;47.666;9.434;2023-02-14T15:21:26;2.50;99.90
15676;DHT22;7938;47.666;9.434;2023-02-14T15:23:54;2.40;99.90
15676;DHT22;7938;47.666;9.434;2023-02-14T15:26:25;2.40;99.90
15676;DHT22;7938;47.666;9.434;2023-02-14T15:28:55;2.40;99.90
15676;DHT22;7938;47.666;9.434;2023-02-14T15:31:27;2.40;99.90
15676;DHT22;7938;47.666;9.434;2023-02-14T15:33:56;2.30;99.90
15676;DHT22;7938;47.666;9.434;2023-02-14T15:36:25;2.30;99.90
15676;DHT22;7938;47.666;9.434;2023-02-14T15:38:53;2.30;99.90
15676;DHT22;7938;47.666;9.434;2023-02-14T15:41:23;2.20;99.90
15676;DHT22;7938;47.666;9.434;2023-02-14T15:43:52;2.30;99.90
15676;DHT22;7938;47.666;9.434;2023-02-14T15:46:27;2.40;99.90
15676;DHT22;7938;47.666;9.434;2023-02-14T15:48:58;2.30;99.90
15676;DHT22;7938;47.666;9.434;2023-02-14T15:51:28;2.50;99.90
15676;DHT22;7938;47.666;9.434;2023-02-14T15:53:57;2.50;99.90
15676;DHT22;7938;47.666;9.434;2023-02-14T15:56:26;2.40;99.90
15676;DHT22;7938;47.666;9.434;2023-02-14T15:59:00;2.40;99.90
15676;DHT22;7938;47.666;9.434;2023-02-14T16:01:28;2.20;99.90
15676;DHT22;7938;47.666;9.434;2023-02-14T16:03:59;2.20;99.90
15676;DHT22;7938;47.666;9.434;2023-02-14T16:06:35;2.10;99.90
15676;DHT22;7938;47.666;9.434;2023-02-14T16:09:04;2.00;99.90
15676;DHT22;7938;47.666;9.434;2023-02-14T16:11:33;1.90;99.90
15676;DHT22;7938;47.666;9.434;2023-02-14T16:14:26;2.00;99.90
15676;DHT22;7938;47.666;9.434;2023-02-14T16:16:58;2.00;99.90
15676;DHT22;7938;47.666;9.434;2023-02-14T16:19:38;2.00;99.90
15676;DHT22;7938;47.666;9.434;2023-02-14T16:22:08;2.00;99.90
15676;DHT22;7938;47.666;9.434;2023-02-14T16:24:35;2.00;99.90
15676;DHT22;7938;47.666;9.434;2023-02-14T16:27:03;1.90;99.90
15676;DHT22;7938;47.666;9.434;2023-02-14T16:29:32;1.90;99.90
15676;DHT22;7938;47.666;9.434;2023-02-14T16:32:09;1.90;99.90
15676;DHT22;7938;47.666;9.434;2023-02-14T16:34:38;1.90;99.90
15676;DHT22;7938;47.666;9.434;2023-02-14T16:37:14;1.90;99.90
15676;DHT22;7938;47.666;9.434;2023-02-14T16:39:42;1.90;99.90
15676;DHT22;7938;47.666;9.434;2023-02-14T16:42:12;1.80;99.90
15676;DHT22;7938;47.666;9.434;2023-02-14T16:44:40;1.80;99.90
15676;DHT22;7938;47.666;9.434;2023-02-14T16:47:10;1.80;99.90
15676;DHT22;7938;47.666;9.434;2023-02-14T16:49:39;1.70;99.90
15676;DHT22;7938;47.666;9.434;2023-02-14T16:52:10;1.70;99.90
15676;DHT22;7938;47.666;9.434;2023-02-14T16:54:39;1.70;99.90
15676;DHT22;7938;47.666;9.434;2023-02-14T16:57:09;1.70;99.90
15676;DHT22;7938;47.666;9.434;2023-02-14T16:59:37;1.70;99.90
15676;DHT22;7938;47.666;9.434;2023-02-14T17:02:04;1.70;99.90
15676;DHT22;7938;47.666;9.434;2023-02-14T17:04:32;1.70;99.90
15676;DHT22;7938;47.666;9.434;2023-02-14T17:07:01;1.60;99.90
15676;DHT22;7938;47.666;9.434;2023-02-14T17:09:34;1.50;99.90
15676;DHT22;7938;47.666;9.434;2023-02-14T17:12:07;1.50;99.90
15676;DHT22;7938;47.666;9.434;2023-02-14T17:14:42;1.40;99.90
15676;DHT22;7938;47.666;9.434;2023-02-14T17:17:10;1.40;99.90
15676;DHT22;7938;47.666;9.434;2023-02-14T17:19:38;1.40;99.90
15676;DHT22;7938;47.666;9.434;2023-02-14T17:22:06;1.40;99.90
15676;DHT22;7938;47.666;9.434;2023-02-14T17:24:33;1.30;99.90
15676;DHT22;7938;47.666;9.434;2023-02-14T17:27:00;1.30;99.90
15676;DHT22;7938;47.666;9.434;2023-02-14T17:29:27;1.30;99.90
15676;DHT22;7938;47.666;9.434;2023-02-14T17:31:54;1.30;99.90
15676;DHT22;7938;47.666;9.434;2023-02-14T17:34:21;1.20;99.90
15676;DHT22;7938;47.666;9.434;2023-02-14T17:36:48;1.30;99.90
15676;DHT22;7938;47.666;9.434;2023-02-14T17:39:17;1.20;99.90
15676;DHT22;7938;47.666;9.434;2023-02-14T17:41:44;1.20;99.90
15676;DHT22;7938;47.666;9.434;2023-02-14T17:44:11;1.20;99.90
15676;DHT22;7938;47.666;9.434;2023-02-14T17:46:38;1.50;99.90
15676;DHT22;7938;47.666;9.434;2023-02-14T17:49:05;1.30;99.90
15676;DHT22;7938;47.666;9.434;2023-02-14T17:51:33;1.70;99.90
15676;DHT22;7938;47.666;9.434;2023-02-14T17:54:00;1.50;99.90
15676;DHT22;7938;47.666;9.434;2023-02-14T17:56:29;1.20;99.90
15676;DHT22;7938;47.666;9.434;2023-02-14T17:58:56;1.10;99.90
15676;DHT22;7938;47.666;9.434;2023-02-14T18:01:25;1.00;99.90
15676;DHT22;7938;47.666;9.434;2023-02-14T18:03:53;0.90;99.90
15676;DHT22;7938;47.666;9.434;2023-02-14T18:06:20;1.00;99.90
15676;DHT22;7938;47.666;9.434;2023-02-14T18:08:51;1.00;99.90
15676;DHT22;7938;47.666;9.434;2023-02-14T18:11:22;0.90;99.90
15676;DHT22;7938;47.666;9.434;2023-02-14T18:13:52;0.90;99.90
15676;DHT22;7938;47.666;9.434;2023-02-14T18:16:20;0.90;99.90
15676;DHT22;7938;47.666;9.434;2023-02-14T18:18:47;1.00;99.90
15676;DHT22;7938;47.666;9.434;2023-02-14T18:21:16;1.00;99.90
15676;DHT22;7938;47.666;9.434;2023-02-14T18:23:44;1.00;99.90
15676;DHT22;7938;47.666;9.434;2023-02-14T18:26:14;1.00;99.90
15676;DHT22;7938;47.666;9.434;2023-02-14T18:28:41;1.10;99.90
15676;DHT22;7938;47.666;9.434;2023-02-14T18:31:11;1.00;99.90
15676;DHT22;7938;47.666;9.434;2023-02-14T18:33:39;1.00;99.90
15676;DHT22;7938;47.666;9.434;2023-02-14T18:36:08;1.00;99.90
15676;DHT22;7938;47.666;9.434;2023-02-14T18:38:36;1.00;99.90
15676;DHT22;7938;47.666;9.434;2023-02-14T18:41:04;1.10;99.90
15676;DHT22;7938;47.666;9.434;2023-02-14T18:43:32;1.10;99.90
15676;DHT22;7938;47.666;9.434;2023-02-14T18:46:02;1.10;99.90
15676;DHT22;7938;47.666;9.434;2023-02-14T18:48:31;1.10;99.90
15676;DHT22;7938;47.666;9.434;2023-02-14T18:51:04;1.00;99.90
15676;DHT22;7938;47.666;9.434;2023-02-14T18:53:31;1.00;99.90
15676;DHT22;7938;47.666;9.434;2023-02-14T18:55:58;1.00;99.90
15676;DHT22;7938;47.666;9.434;2023-02-14T18:58:25;1.00;99.90
15676;DHT22;7938;47.666;9.434;2023-02-14T19:00:52;1.00;99.90
15676;DHT22;7938;47.666;9.434;2023-02-14T19:03:20;1.00;99.90
15676;DHT22;7938;47.666;9.434;2023-02-14T19:05:48;1.00;99.90
15676;DHT22;7938;47.666;9.434;2023-02-14T19:08:17;1.00;99.90
15676;DHT22;7938;47.666;9.434;2023-02-14T19:10:44;1.10;99.90
15676;DHT22;7938;47.666;9.434;2023-02-14T19:13:11;1.10;99.90
15676;DHT22;7938;47.666;9.434;2023-02-14T19:15:38;1.10;99.90
15676;DHT22;7938;47.666;9.434;2023-02-14T19:18:05;1.00;99.90
15676;DHT22;7938;47.666;9.434;2023-02-14T19:20:32;0.80;99.90
15676;DHT22;7938;47.666;9.434;2023-02-14T19:23:00;0.80;99.90
15676;DHT22;7938;47.666;9.434;2023-02-14T19:25:28;0.80;99.90
15676;DHT22;7938;47.666;9.434;2023-02-14T19:27:57;0.70;99.90
15676;DHT22;7938;47.666;9.434;2023-02-14T19:30:24;0.70;99.90
15676;DHT22;7938;47.666;9.434;2023-02-14T19:32:51;0.70;99.90
15676;DHT22;7938;47.666;9.434;2023-02-14T19:35:18;0.70;99.90
15676;DHT22;7938;47.666;9.434;2023-02-14T19:37:45;0.70;99.90
15676;DHT22;7938;47.666;9.434;2023-02-14T19:40:14;0.60;99.90
15676;DHT22;7938;47.666;9.434;2023-02-14T19:42:44;0.60;99.90
15676;DHT22;7938;47.666;9.434;2023-02-14T19:45:11;0.60;99.90
15676;DHT22;7938;47.666;9.434;2023-02-14T19:47:38;0.60;99.90
15676;DHT22;7938;47.666;9.434;2023-02-14T19:50:06;0.50;99.90
15676;DHT22;7938;47.666;9.434;2023-02-14T19:52:33;0.50;99.90
15676;DHT22;7938;47.666;9.434;2023-02-14T19:55:00;0.60;99.90
15676;DHT22;7938;47.666;9.434;2023-02-14T19:57:29;0.60;99.90
15676;DHT22;7938;47.666;9.434;2023-02-14T19:59:56;0.60;99.90
15676;DHT22;7938;47.666;9.434;2023-02-14T20:02:23;0.60;99.90
15676;DHT22;7938;47.666;9.434;2023-02-14T20:04:50;0.60;99.90
15676;DHT22;7938;47.666;9.434;2023-02-14T20:07:18;0.60;99.90
15676;DHT22;7938;47.666;9.434;2023-02-14T20:09:45;0.60;99.90
15676;DHT22;7938;47.666;9.434;2023-02-14T20:12:12;0.60;99.90
15676;DHT22;7938;47.666;9.434;2023-02-14T20:14:40;0.60;99.90
15676;DHT22;7938;47.666;9.434;2023-02-14T20:17:07;0.50;99.90
15676;DHT22;7938;47.666;9.434;2023-02-14T20:19:34;0.50;99.90
15676;DHT22;7938;47.666;9.434;2023-02-14T20:22:02;0.60;99.90
15676;DHT22;7938;47.666;9.434;2023-02-14T20:24:31;0.60;99.90
15676;DHT22;7938;47.666;9.434;2023-02-14T20:26:58;0.50;99.90
15676;DHT22;7938;47.666;9.434;2023-02-14T20:29:27;0.50;99.90
15676;DHT22;7938;47.666;9.434;2023-02-14T20:31:57;0.40;99.90
15676;DHT22;7938;47.666;9.434;2023-02-14T20:34:28;0.50;99.90
15676;DHT22;7938;47.666;9.434;2023-02-14T20:36:55;0.40;99.90
15676;DHT22;7938;47.666;9.434;2023-02-14T20:39:27;0.30;99.90
15676;DHT22;7938;47.666;9.434;2023-02-14T20:41:54;0.30;99.90
15676;DHT22;7938;47.666;9.434;2023-02-14T20:44:22;0.40;99.90
15676;DHT22;7938;47.666;9.434;2023-02-14T20:46:51;0.40;99.90
15676;DHT22;7938;47.666;9.434;2023-02-14T20:49:21;0.30;99.90
15676;DHT22;7938;47.666;9.434;2023-02-14T20:51:49;0.40;99.90
15676;DHT22;7938;47.666;9.434;2023-02-14T20:54:17;0.40;99.90
15676;DHT22;7938;47.666;9.434;2023-02-14T20:56:44;0.30;99.90
15676;DHT22;7938;47.666;9.434;2023-02-14T20:59:12;0.30;99.90
15676;DHT22;7938;47.666;9.434;2023-02-14T21:01:39;0.30;99.90
15676;DHT22;7938;47.666;9.434;2023-02-14T21:04:06;0.30;99.90
15676;DHT22;7938;47.666;9.434;2023-02-14T21:06:34;0.10;99.90
15676;DHT22;7938;47.666;9.434;2023-02-14T21:09:03;0.00;99.90
15676;DHT22;7938;47.666;9.434;2023-02-14T21:11:30;-0.10;99.90
15676;DHT22;7938;47.666;9.434;2023-02-14T21:13:58;-0.10;99.90
15676;DHT22;7938;47.666;9.434;2023-02-14T21:16:26;-0.20;99.90
15676;DHT22;7938;47.666;9.434;2023-02-14T21:18:56;-0.20;99.90
15676;DHT22;7938;47.666;9.434;2023-02-14T21:21:25;-0.30;99.90
15676;DHT22;7938;47.666;9.434;2023-02-14T21:23:59;-0.30;99.90
15676;DHT22;7938;47.666;9.434;2023-02-14T21:26:27;-0.20;99.90
15676;DHT22;7938;47.666;9.434;2023-02-14T21:28:54;-0.20;99.90
15676;DHT22;7938;47.666;9.434;2023-02-14T21:31:21;-0.20;99.90
15676;DHT22;7938;47.666;9.434;2023-02-14T21:33:50;-0.20;99.90
15676;DHT22;7938;47.666;9.434;2023-02-14T21:36:19;-0.20;99.90
15676;DHT22;7938;47.666;9.434;2023-02-14T21:38:46;-0.20;99.90
15676;DHT22;7938;47.666;9.434;2023-02-14T21:41:16;-0.10;99.90
15676;DHT22;7938;47.666;9.434;2023-02-14T21:43:45;-0.10;99.90